Time;durP1;ratioP1;P1;durP2;ratioP2;P2;SDS_P1;SDS_P2;PMS_P1;PMS_P2;Temp;Humidity;BMP_temperature;BMP_pressure;BME280_temperature;BME280_humidity;BME280_pressure;Samples;Min_cycle;Max_cycle;Signal;HPM_P1;HPM_P2
2022/05/05 00:00:54;;;;;;;4.82;3.75;;;;;;;14.85;74.68;98974.50;5072149;28;20119;-50
2022/05/05 00:03:20;;;;;;;8.10;4.47;;;;;;;14.92;75.63;98975.25;5072109;28;20536;-50
2022/05/05 00:05:46;;;;;;;5.35;3.70;;;;;;;15.04;75.71;98977.97;5073404;28;20153;-50
2022/05/05 00:08:12;;;;;;;6.03;4.80;;;;;;;15.07;75.50;98980.13;5073330;28;20020;-50
2022/05/05 00:16:09;;;;;;;7.97;4.35;;;;;;;15.08;75.25;98993.16;5073403;28;20036;-50
2022/05/05 00:18:35;;;;;;;4.30;3.90;;;;;;;15.12;74.74;98989.03;5073126;28;20017;-49
2022/05/05 00:21:01;;;;;;;7.35;4.40;;;;;;;15.12;75.05;98991.66;5072088;28;20029;-50
2022/05/05 00:23:27;;;;;;;9.00;4.70;;;;;;;15.17;74.76;98991.00;5071723;28;20063;-49
2022/05/05 00:25:52;;;;;;;8.75;4.85;;;;;;;15.17;74.65;98986.53;5071621;28;20483;-49
2022/05/05 00:28:18;;;;;;;6.28;4.63;;;;;;;15.19;74.02;98983.66;5072889;28;20103;-49
2022/05/05 00:30:44;;;;;;;14.02;6.18;;;;;;;15.24;73.85;98981.16;5071296;28;20387;-50
2022/05/05 00:33:10;;;;;;;7.40;5.68;;;;;;;15.25;73.72;98985.44;5071490;28;20052;-50
2022/05/05 00:35:35;;;;;;;9.18;6.00;;;;;;;15.27;74.51;98980.72;5071483;28;20456;-48
2022/05/05 00:38:03;;;;;;;19.00;6.70;;;;;;;15.24;74.51;98973.22;5071299;28;20052;-49
2022/05/05 00:40:29;;;;;;;20.50;7.40;;;;;;;15.18;74.75;98968.81;5072651;28;20096;-48
2022/05/05 00:42:55;;;;;;;15.07;6.78;;;;;;;15.10;75.12;98967.28;5071407;28;20024;-49
2022/05/05 00:45:21;;;;;;;8.23;7.18;;;;;;;14.99;75.28;98962.78;5072570;28;20027;-49
2022/05/05 00:47:47;;;;;;;10.43;7.78;;;;;;;14.89;75.89;98963.28;5071214;28;20032;-49
2022/05/05 00:50:12;;;;;;;9.27;8.35;;;;;;;14.83;76.20;98961.53;5071217;28;20027;-48
2022/05/05 00:52:38;;;;;;;10.75;8.70;;;;;;;14.78;76.74;98958.72;5072434;28;20031;-48
2022/05/05 00:55:04;;;;;;;9.00;8.20;;;;;;;14.76;77.22;98956.31;5071000;28;20021;-49
2022/05/05 00:57:30;;;;;;;9.43;8.45;;;;;;;14.69;77.73;98962.69;5070943;28;20126;-49
2022/05/05 01:00:00;;;;;;;31.83;8.98;;;;;;;14.61;78.22;98949.78;5071029;28;20131;-50
2022/05/05 01:02:26;;;;;;;12.48;9.20;;;;;;;14.53;78.49;98956.16;5072272;28;20029;-50
2022/05/05 01:04:52;;;;;;;18.48;10.23;;;;;;;14.43;78.73;98958.44;5072236;28;20024;-50
2022/05/05 01:07:18;;;;;;;13.48;10.15;;;;;;;14.36;79.28;98955.88;5070843;28;20021;-50
2022/05/05 01:09:44;;;;;;;15.48;9.65;;;;;;;14.25;79.21;98960.06;5070850;28;20013;-50
2022/05/05 01:12:10;;;;;;;11.52;10.18;;;;;;;14.09;79.54;98961.41;5072068;28;20028;-49
2022/05/05 01:14:36;;;;;;;12.07;10.77;;;;;;;14.05;80.09;98965.50;5072167;28;20024;-50
2022/05/05 01:17:02;;;;;;;15.15;11.95;;;;;;;14.06;80.46;98959.19;5072229;28;20035;-50
2022/05/05 01:19:28;;;;;;;17.13;11.27;;;;;;;14.05;80.77;98962.88;5072004;28;20020;-50
2022/05/05 01:21:54;;;;;;;13.45;12.02;;;;;;;14.01;81.18;98953.78;5072031;28;20028;-50
2022/05/05 01:29:51;;;;;;;17.25;13.32;;;;;;;13.78;81.75;98956.97;5071673;28;20028;-49
2022/05/05 01:32:17;;;;;;;14.63;12.02;;;;;;;13.81;82.44;98953.94;5071880;28;20058;-49
2022/05/05 01:34:43;;;;;;;13.18;11.77;;;;;;;13.87;82.19;98952.25;5071874;28;20028;-49
2022/05/05 01:37:09;;;;;;;17.35;12.80;;;;;;;13.89;82.79;98952.84;5070410;28;20024;-50
2022/05/05 01:39:34;;;;;;;16.23;13.02;;;;;;;13.91;82.40;98946.34;5070518;28;20029;-49
2022/05/05 01:42:00;;;;;;;16.92;13.07;;;;;;;13.91;82.55;98945.53;5071777;28;20105;-49
2022/05/05 01:44:25;;;;;;;15.68;14.05;;;;;;;13.91;83.03;98948.19;5070468;28;20391;-50
2022/05/05 01:46:54;;;;;;;14.75;13.07;;;;;;;13.95;83.36;98952.00;5071703;28;20032;-50
2022/05/05 01:49:19;;;;;;;12.75;11.45;;;;;;;14.06;83.38;98950.47;5070358;28;20119;-51
2022/05/05 01:51:45;;;;;;;17.85;13.13;;;;;;;14.09;83.16;98950.06;5071747;28;20108;-51
2022/05/05 01:54:11;;;;;;;13.98;11.98;;;;;;;14.12;83.13;98947.78;5071675;28;20021;-50
2022/05/05 01:56:37;;;;;;;15.23;11.48;;;;;;;14.13;82.89;98949.41;5071519;28;20429;-51
2022/05/05 01:59:03;;;;;;;14.10;12.63;;;;;;;14.16;83.47;98951.59;5070319;28;20466;-50
2022/05/05 02:01:28;;;;;;;15.55;13.93;;;;;;;14.24;83.14;98950.50;5070301;28;20583;-51
2022/05/05 02:03:54;;;;;;;24.10;14.60;;;;;;;14.29;83.27;98941.97;5071566;28;20060;-51
2022/05/05 02:06:20;;;;;;;15.07;13.52;;;;;;;14.30;83.36;98939.06;5071540;28;20047;-51
2022/05/05 02:08:45;;;;;;;16.83;14.85;;;;;;;14.34;83.90;98939.47;5071533;28;20151;-50
2022/05/05 02:11:11;;;;;;;17.63;13.32;;;;;;;14.37;83.71;98937.19;5071483;28;20016;-51
2022/05/05 02:13:37;;;;;;;21.52;13.15;;;;;;;14.36;83.62;98947.97;5071492;28;20028;-50
2022/05/05 02:16:04;;;;;;;21.00;12.90;;;;;;;14.35;83.79;98943.72;5071338;28;20022;-51
2022/05/05 02:18:31;;;;;;;16.50;13.35;;;;;;;14.39;83.81;98945.69;5071439;28;20028;-50
2022/05/05 02:20:56;;;;;;;15.77;12.90;;;;;;;14.41;83.42;98942.03;5071426;28;20148;-51
2022/05/05 02:23:23;;;;;;;21.63;13.73;;;;;;;14.45;83.90;98937.94;5071405;28;20029;-51
2022/05/05 02:25:48;;;;;;;20.05;15.75;;;;;;;14.46;83.79;98935.06;5071330;28;20107;-50
2022/05/05 02:28:14;;;;;;;17.60;15.13;;;;;;;14.53;84.00;98941.09;5071375;28;20137;-50
2022/05/05 02:30:40;;;;;;;15.23;13.82;;;;;;;14.57;83.70;98931.75;5069810;28;20098;-51
2022/05/05 02:33:06;;;;;;;13.90;12.35;;;;;;;14.62;84.18;98932.91;5069953;28;20398;-51
2022/05/05 02:35:32;;;;;;;21.55;14.07;;;;;;;14.61;83.57;98928.63;5071331;28;20035;-51
2022/05/05 02:40:42;;;;;;;14.00;12.07;;;;;;;14.67;83.53;98931.22;5075010;28;20036;-50
2022/05/05 02:43:08;;;;;;;14.52;13.05;;;;;;;14.69;83.65;98921.25;5073626;28;20017;-50
2022/05/05 02:45:34;;;;;;;14.00;12.60;;;;;;;14.68;83.22;98919.63;5073602;28;20114;-51
2022/05/05 02:48:00;;;;;;;13.85;12.52;;;;;;;14.65;82.99;98925.34;5073529;28;20031;-51
2022/05/05 02:50:26;;;;;;;17.15;12.82;;;;;;;14.68;83.27;98926.75;5073525;28;20502;-52
2022/05/05 02:52:54;;;;;;;14.48;11.82;;;;;;;14.72;83.30;98920.00;5073434;28;20448;-51
2022/05/05 02:55:20;;;;;;;17.13;12.70;;;;;;;14.73;83.24;98916.34;5074692;28;20505;-51
2022/05/05 02:57:45;;;;;;;14.45;12.32;;;;;;;14.68;83.01;98914.34;5073286;28;20021;-51
2022/05/05 03:00:12;;;;;;;14.48;12.23;;;;;;;14.66;82.81;98915.59;5073354;28;20097;-51
2022/05/05 03:02:41;;;;;;;14.25;12.75;;;;;;;14.65;82.59;98916.59;5073303;28;20559;-51
2022/05/05 03:05:09;;;;;;;13.73;12.40;;;;;;;14.64;82.41;98910.53;5074509;28;20020;-51
2022/05/05 03:07:35;;;;;;;20.45;13.85;;;;;;;14.65;82.50;98914.78;5074568;28;20024;-51
2022/05/05 03:10:01;;;;;;;15.32;13.30;;;;;;;14.70;82.51;98922.03;5074428;28;20097;-50
2022/05/05 03:12:26;;;;;;;14.52;13.13;;;;;;;14.75;82.85;98919.56;5073146;28;20493;-51
2022/05/05 03:14:52;;;;;;;15.82;13.90;;;;;;;14.76;82.93;98918.50;5074388;28;20482;-50
2022/05/05 03:17:18;;;;;;;16.60;12.73;;;;;;;14.82;83.20;98919.47;5072938;28;20116;-52
2022/05/05 03:19:44;;;;;;;14.18;12.77;;;;;;;14.88;83.13;98908.81;5089854;28;20032;-51
2022/05/05 03:22:09;;;;;;;13.63;12.30;;;;;;;14.92;82.63;98911.81;5074258;28;20486;-50
2022/05/05 03:24:35;;;;;;;15.68;11.90;;;;;;;14.91;82.46;98905.75;5074280;28;20442;-51
2022/05/05 03:27:01;;;;;;;13.38;11.90;;;;;;;14.92;82.62;98909.97;5074102;28;20028;-51
2022/05/05 03:29:28;;;;;;;16.52;12.77;;;;;;;14.96;82.49;98911.16;5072825;28;20021;-51
2022/05/05 03:31:53;;;;;;;13.52;12.00;;;;;;;15.03;82.21;98912.88;5072518;28;20418;-51
2022/05/05 03:34:20;;;;;;;13.23;11.80;;;;;;;15.02;81.63;98913.94;5072702;28;20024;-51
2022/05/05 03:36:46;;;;;;;13.18;12.00;;;;;;;14.99;81.59;98917.84;5073880;28;20121;-50
2022/05/05 03:39:11;;;;;;;14.70;12.48;;;;;;;15.00;81.64;98905.44;5073990;28;20051;-50
2022/05/05 03:41:37;;;;;;;17.08;12.40;;;;;;;15.02;81.59;98906.81;5073874;28;20121;-50
2022/05/05 03:44:05;;;;;;;15.85;13.15;;;;;;;15.02;81.05;98911.28;5073843;28;20016;-50
2022/05/05 03:46:31;;;;;;;15.00;12.52;;;;;;;14.94;81.24;98905.28;5073831;28;20024;-50
2022/05/05 03:48:57;;;;;;;17.58;13.95;;;;;;;15.01;81.74;98910.50;5073177;28;20016;-50
2022/05/05 03:51:22;;;;;;;18.55;15.38;;;;;;;15.10;81.71;98913.63;5073766;28;20031;-51
2022/05/05 03:53:48;;;;;;;17.50;15.80;;;;;;;15.14;81.60;98905.00;5072362;28;20059;-51
2022/05/05 03:56:14;;;;;;;19.98;15.15;;;;;;;15.09;81.70;98906.72;5073590;28;20383;-51
2022/05/05 03:58:40;;;;;;;21.67;17.05;;;;;;;15.06;81.98;98912.47;5072271;28;20017;-51
2022/05/05 04:01:05;;;;;;;18.92;16.95;;;;;;;15.02;82.13;98913.94;5073588;28;20024;-51
2022/05/05 04:03:31;;;;;;;17.90;15.90;;;;;;;14.94;82.28;98907.91;5073511;28;20482;-51
2022/05/05 04:06:01;;;;;;;20.08;15.80;;;;;;;14.84;82.08;98904.19;5073438;28;20102;-52
2022/05/05 04:08:27;;;;;;;17.02;15.30;;;;;;;14.73;82.27;98909.22;5073394;28;20028;-51
2022/05/05 04:10:53;;;;;;;20.77;17.40;;;;;;;14.63;82.25;98908.91;5071972;28;20509;-50
2022/05/05 04:13:19;;;;;;;21.27;19.08;;;;;;;14.58;82.67;98911.41;5073320;28;20024;-51
2022/05/05 04:15:46;;;;;;;20.88;17.70;;;;;;;14.49;82.46;98916.16;5073232;28;20034;-51
2022/05/05 04:18:12;;;;;;;18.65;16.20;;;;;;;14.41;82.85;98911.16;5073118;28;20544;-52
2022/05/05 04:20:38;;;;;;;22.30;17.40;;;;;;;14.34;83.15;98911.22;5073150;28;20028;-51
2022/05/05 04:23:04;;;;;;;23.30;17.33;;;;;;;14.33;83.18;98916.75;5071748;28;20074;-51
2022/05/05 04:25:31;;;;;;;21.45;17.15;;;;;;;14.31;83.56;98921.44;5073617;28;20028;-51
2022/05/05 04:27:57;;;;;;;20.73;18.45;;;;;;;14.33;83.61;98917.53;5072962;28;20051;-51
2022/05/05 04:30:23;;;;;;;21.95;19.50;;;;;;;14.29;83.44;98924.28;5072698;28;20040;-51
2022/05/05 04:32:48;;;;;;;32.85;19.75;;;;;;;14.31;83.75;98924.88;5072865;28;20021;-51
2022/05/05 04:35:15;;;;;;;23.02;20.15;;;;;;;14.38;84.06;98924.78;5071535;28;20093;-51
2022/05/05 04:37:41;;;;;;;22.55;20.25;;;;;;;14.41;84.12;98934.94;5072651;28;20024;-52
2022/05/05 04:40:10;;;;;;;30.35;22.45;;;;;;;14.44;84.34;98931.84;5071418;28;20021;-52
2022/05/05 04:42:37;;;;;;;29.70;23.00;;;;;;;14.44;84.34;98934.47;5072655;28;20016;-51
2022/05/05 04:45:04;;;;;;;29.80;23.38;;;;;;;14.41;84.56;98937.56;5072625;28;20017;-52
2022/05/05 04:47:32;;;;;;;36.50;24.00;;;;;;;14.38;84.52;98944.06;5071293;28;20048;-51
2022/05/05 04:49:57;;;;;;;29.38;23.95;;;;;;;14.29;84.48;98953.31;5072797;28;20154;-51
2022/05/05 04:52:26;;;;;;;28.92;23.13;;;;;;;14.17;83.99;98955.06;5072485;28;20483;-51
2022/05/05 04:54:52;;;;;;;27.02;20.77;;;;;;;14.07;84.16;98962.66;5071130;28;20137;-52
2022/05/05 04:57:18;;;;;;;36.67;23.23;;;;;;;13.91;84.37;98964.81;5072346;28;20510;-51
2022/05/05 04:59:44;;;;;;;30.70;21.50;;;;;;;13.87;84.50;98965.47;5071427;28;20065;-51
2022/05/05 05:02:09;;;;;;;30.33;22.50;;;;;;;13.79;84.17;98974.44;5071010;28;20025;-51
2022/05/05 05:04:35;;;;;;;33.45;22.45;;;;;;;13.66;84.07;98969.25;5072267;28;20033;-51
2022/05/05 05:07:01;;;;;;;32.88;23.80;;;;;;;13.56;84.71;98977.63;5072247;28;20025;-51
2022/05/05 05:09:26;;;;;;;28.15;23.02;;;;;;;13.49;84.56;98979.50;5072196;28;20028;-51
2022/05/05 05:11:52;;;;;;;40.70;25.85;;;;;;;13.48;84.92;98980.50;5072176;28;20094;-52
2022/05/05 05:14:18;;;;;;;34.08;21.83;;;;;;;13.51;85.17;98985.38;5070811;28;20020;-51
2022/05/05 05:16:43;;;;;;;34.58;21.48;;;;;;;13.57;84.96;98987.16;5071973;28;20024;-51
2022/05/05 05:19:09;;;;;;;33.20;23.23;;;;;;;13.57;85.00;98987.97;5072107;28;20013;-51
2022/05/05 05:21:35;;;;;;;31.55;21.02;;;;;;;13.58;85.23;98981.69;5070670;28;20509;-51
2022/05/05 05:24:02;;;;;;;28.20;21.65;;;;;;;13.61;85.22;98985.72;5070679;28;20423;-51
2022/05/05 05:26:28;;;;;;;31.77;22.38;;;;;;;13.65;85.34;98994.81;5071990;28;20024;-51
2022/05/05 05:28:54;;;;;;;30.13;21.52;;;;;;;13.70;85.34;98992.38;5071921;28;20097;-51
2022/05/05 05:31:21;;;;;;;33.55;22.30;;;;;;;13.77;85.24;98984.41;5071694;28;20047;-50
2022/05/05 05:33:48;;;;;;;31.95;21.70;;;;;;;13.83;85.27;98988.81;5071898;28;20020;-51
2022/05/05 05:36:14;;;;;;;27.30;21.80;;;;;;;13.95;85.61;98996.84;5071772;28;20062;-51
2022/05/05 05:38:40;;;;;;;25.85;21.08;;;;;;;14.07;85.42;98991.69;5087311;28;20111;-51
2022/05/05 05:41:05;;;;;;;26.95;20.58;;;;;;;14.06;84.90;98997.97;5071787;28;20124;-50
2022/05/05 05:43:31;;;;;;;31.55;21.50;;;;;;;14.07;85.14;99000.41;5071736;28;20486;-51
2022/05/05 05:45:57;;;;;;;30.33;22.05;;;;;;;14.14;84.96;99000.34;5071716;28;20103;-50
2022/05/05 05:48:23;;;;;;;31.52;21.48;;;;;;;14.14;84.81;99001.16;5071780;28;20391;-50
2022/05/05 05:50:48;;;;;;;31.52;19.95;;;;;;;14.16;84.96;99001.75;5071691;28;20024;-51
2022/05/05 05:53:14;;;;;;;31.73;19.50;;;;;;;14.20;84.63;99004.75;5070362;28;20028;-50
2022/05/05 05:55:40;;;;;;;31.65;19.38;;;;;;;14.18;84.35;99002.38;5071702;28;20016;-49
2022/05/05 05:58:05;;;;;;;30.58;19.75;;;;;;;14.17;84.34;98995.44;5070209;28;20028;-50
2022/05/05 06:00:32;;;;;;;36.05;19.98;;;;;;;14.24;84.16;99005.16;5070238;28;20052;-49
2022/05/05 06:05:45;;;;;;;22.50;17.20;;;;;;;14.23;82.96;99009.63;5071831;28;20024;-49
2022/05/05 06:08:11;;;;;;;19.98;16.45;;;;;;;14.23;82.43;99014.91;5070239;28;20040;-49
2022/05/05 06:10:37;;;;;;;38.92;16.48;;;;;;;14.23;82.47;99008.81;5071661;28;20402;-49
2022/05/05 06:13:03;;;;;;;30.15;15.98;;;;;;;14.32;82.11;99012.78;5074321;28;20025;-49
2022/05/05 06:15:30;;;;;;;40.00;17.02;;;;;;;14.45;81.61;99017.97;5074191;28;20498;-49
2022/05/05 06:17:56;;;;;;;45.80;16.65;;;;;;;14.49;81.54;99015.72;5074111;28;20562;-49
2022/05/05 06:20:22;;;;;;;22.63;14.75;;;;;;;14.50;80.94;99018.09;5075479;28;20032;-49
2022/05/05 06:22:50;;;;;;;28.13;15.65;;;;;;;14.54;80.86;99019.28;5075420;28;20398;-49
2022/05/05 06:25:16;;;;;;;25.50;17.05;;;;;;;14.62;80.72;99014.78;5075351;28;20021;-49
2022/05/05 06:27:42;;;;;;;29.27;16.90;;;;;;;14.65;79.95;99025.75;5073984;28;20405;-49
2022/05/05 06:30:13;;;;;;;36.70;16.63;;;;;;;14.61;79.61;99023.72;5075001;28;20044;-48
2022/05/05 06:32:40;;;;;;;41.53;16.27;;;;;;;14.57;78.95;99028.66;5075292;28;20020;-47
2022/05/05 06:35:07;;;;;;;50.95;16.73;;;;;;;14.57;79.52;99026.03;5075132;28;20070;-49
2022/05/05 06:37:32;;;;;;;45.53;17.08;;;;;;;14.65;78.87;99022.25;5074987;28;20024;-50
2022/05/05 06:39:58;;;;;;;22.23;14.55;;;;;;;14.77;78.68;99025.81;5073861;28;20398;-49
2022/05/05 06:42:24;;;;;;;42.85;16.02;;;;;;;14.92;78.27;99018.31;5075005;28;20031;-48
2022/05/05 06:44:49;;;;;;;24.15;13.63;;;;;;;15.02;77.72;99019.66;5075262;28;20039;-50
2022/05/05 06:47:15;;;;;;;23.48;13.43;;;;;;;15.08;77.01;99024.06;5074879;28;20024;-49
2022/05/05 06:49:41;;;;;;;246.90;32.03;;;;;;;15.13;77.09;99024.19;5074884;28;20528;-49
2022/05/05 06:52:07;;;;;;;116.72;20.77;;;;;;;15.17;76.39;99025.38;5074771;28;20024;-48
2022/05/05 06:54:34;;;;;;;35.83;13.57;;;;;;;15.33;76.25;99030.06;5074809;28;20025;-50
2022/05/05 06:57:00;;;;;;;37.92;13.98;;;;;;;15.53;75.19;99031.63;5074653;28;20028;-48
2022/05/05 06:59:25;;;;;;;39.28;12.90;;;;;;;15.75;75.10;99038.09;5074730;28;20103;-49
2022/05/05 07:02:01;;;;;;;41.55;14.23;;;;;;;15.84;74.54;99032.47;5074636;28;20060;-50
2022/05/05 07:07:14;;;;;;;34.20;13.15;;;;;;;15.82;72.80;99045.13;5074587;28;20059;-50
2022/05/05 07:12:26;;;;;;;26.88;13.63;;;;;;;15.71;73.34;99051.94;5074501;28;20134;-50
2022/05/05 07:14:52;;;;;;;32.28;13.75;;;;;;;15.71;72.48;99055.41;5073064;28;20028;-49
2022/05/05 07:17:18;;;;;;;26.83;11.63;;;;;;;15.77;72.09;99051.91;5074288;28;20031;-50
2022/05/05 07:19:44;;;;;;;48.28;12.82;;;;;;;15.84;71.49;99059.75;5074379;28;20414;-50
2022/05/05 07:22:10;;;;;;;39.65;12.60;;;;;;;15.92;71.56;99059.44;5073771;28;20040;-50
2022/05/05 07:24:36;;;;;;;36.00;11.68;;;;;;;16.03;70.43;99057.03;5073737;28;20021;-50
2022/05/05 07:27:03;;;;;;;46.75;13.15;;;;;;;16.24;70.41;99071.56;5074207;28;20029;-50
2022/05/05 07:29:30;;;;;;;34.33;12.27;;;;;;;16.36;70.03;99067.94;5072814;28;20020;-50
2022/05/05 07:31:59;;;;;;;20.17;11.15;;;;;;;16.55;69.08;99062.53;5073914;28;20134;-50
2022/05/05 07:34:24;;;;;;;31.95;12.60;;;;;;;16.58;68.99;99067.38;5072728;28;20542;-50
2022/05/05 07:36:50;;;;;;;32.05;12.18;;;;;;;16.62;68.70;99065.88;5073913;28;20100;-49
2022/05/05 07:39:16;;;;;;;45.10;12.70;;;;;;;16.66;68.88;99068.84;5072633;28;20063;-49
2022/05/05 07:41:42;;;;;;;44.60;13.65;;;;;;;16.64;68.38;99069.09;5073913;28;20021;-50
2022/05/05 07:44:09;;;;;;;41.70;12.65;;;;;;;16.83;68.34;99061.84;5073817;28;20028;-50
2022/05/05 07:46:36;;;;;;;25.17;11.25;;;;;;;17.04;67.56;99070.25;5073869;28;20031;-50
2022/05/05 07:49:04;;;;;;;31.50;12.15;;;;;;;17.09;66.45;99068.50;5073782;28;20025;-50
2022/05/05 07:51:30;;;;;;;75.53;15.52;;;;;;;17.05;65.17;99074.53;5073709;28;20021;-50
2022/05/05 07:56:42;;;;;;;37.17;11.97;;;;;;;17.10;66.02;99085.22;5073678;28;20469;-50
2022/05/05 07:59:07;;;;;;;62.53;13.32;;;;;;;17.17;66.02;99080.63;5073552;28;20079;-50
2022/05/05 08:01:33;;;;;;;34.75;11.52;;;;;;;17.29;66.35;99091.22;5073589;28;20502;-50
2022/05/05 08:03:59;;;;;;;25.63;11.57;;;;;;;17.29;65.42;99089.34;5073532;28;20028;-51
2022/05/05 08:06:26;;;;;;;17.45;10.25;;;;;;;17.31;65.94;99078.50;5073426;28;20032;-50
2022/05/05 08:08:51;;;;;;;44.30;12.32;;;;;;;17.35;65.21;99090.28;5072076;28;20021;-50
2022/05/05 08:11:17;;;;;;;35.47;11.18;;;;;;;17.44;64.48;99080.88;5073360;28;20027;-50
2022/05/05 08:13:44;;;;;;;25.42;10.88;;;;;;;17.56;64.82;99091.47;5073308;28;20029;-51
2022/05/05 08:16:10;;;;;;;25.67;11.10;;;;;;;17.63;63.22;99092.16;5073225;28;20024;-50
2022/05/05 08:18:38;;;;;;;15.80;10.20;;;;;;;17.50;64.06;99093.22;5071808;28;20029;-50
2022/05/05 08:21:05;;;;;;;24.38;10.02;;;;;;;17.43;63.35;99094.41;5071836;28;20078;-51
2022/05/05 08:23:31;;;;;;;18.85;9.90;;;;;;;17.29;63.70;99107.91;5073381;28;20035;-51
2022/05/05 08:28:41;;;;;;;27.67;10.95;;;;;;;17.36;64.25;99108.63;5073011;28;20052;-50
2022/05/05 08:31:10;;;;;;;25.13;10.63;;;;;;;17.43;64.42;99108.47;5071385;28;20040;-51
2022/05/05 08:33:38;;;;;;;17.13;9.70;;;;;;;17.65;63.86;99108.66;5072698;28;20478;-50
2022/05/05 08:36:05;;;;;;;17.40;9.05;;;;;;;17.82;61.90;99099.91;5072873;28;20070;-50
2022/05/05 08:38:32;;;;;;;21.13;9.43;;;;;;;17.98;62.11;99104.50;5072784;28;20021;-51
2022/05/05 08:40:59;;;;;;;14.48;9.57;;;;;;;18.38;61.51;99106.25;5071489;28;20112;-51
2022/05/05 08:43:26;;;;;;;19.50;8.77;;;;;;;18.82;60.53;99108.28;5073058;28;20028;-51
2022/05/05 08:45:55;;;;;;;17.38;9.85;;;;;;;19.18;58.66;99104.25;5072693;28;20059;-51
2022/05/05 08:48:21;;;;;;;41.28;10.55;;;;;;;19.44;57.85;99108.03;5072623;28;20028;-50
2022/05/05 08:50:52;;;;;;;31.08;10.60;;;;;;;19.82;55.96;99097.56;5072607;28;20111;-50
2022/05/05 08:53:21;;;;;;;19.35;9.35;;;;;;;20.09;54.77;99098.38;5071248;28;20032;-50
2022/05/05 08:55:47;;;;;;;23.58;8.73;;;;;;;20.14;54.70;99098.44;5072481;28;20123;-49
2022/05/05 08:58:13;;;;;;;22.40;8.95;;;;;;;20.24;54.55;99104.88;5072371;28;20096;-51
2022/05/05 09:00:39;;;;;;;16.95;8.48;;;;;;;20.34;52.76;99096.97;5072341;28;20067;-50
2022/05/05 09:03:08;;;;;;;20.15;8.40;;;;;;;20.33;52.17;99104.19;5072366;28;20464;-50
2022/05/05 09:05:43;;;;;;;12.55;8.50;;;;;;;20.30;51.92;99110.03;5072268;28;20027;-50
2022/05/05 09:08:13;;;;;;;19.50;8.95;;;;;;;20.47;52.02;99106.44;5070914;28;20099;-50
2022/05/05 09:10:50;;;;;;;27.33;8.90;;;;;;;20.78;50.98;99098.69;5072203;28;20020;-51
2022/05/05 09:13:23;;;;;;;16.58;8.43;;;;;;;21.08;50.70;99106.84;5071043;28;20033;-50
2022/05/05 09:15:49;;;;;;;20.95;9.00;;;;;;;21.33;48.92;99103.50;5070854;28;20025;-51
2022/05/05 09:18:17;;;;;;;20.55;8.88;;;;;;;21.75;48.26;99101.78;5070682;28;20028;-51
2022/05/05 09:20:44;;;;;;;13.98;9.38;;;;;;;22.45;46.76;99099.50;5072038;28;20032;-50
2022/05/05 09:26:30;;;;;;;15.23;9.23;;;;;;;23.37;44.25;99092.38;5072261;28;20446;-50
2022/05/05 09:28:56;;;;;;;19.15;8.57;;;;;;;23.89;43.21;99091.84;5071784;28;20402;-50
2022/05/05 09:31:22;;;;;;;17.60;8.80;;;;;;;24.33;41.77;99088.31;5071711;28;20055;-50
2022/05/05 09:33:48;;;;;;;15.05;13.27;;;;;;;24.68;38.69;99096.34;5070608;28;20119;-50
2022/05/05 09:36:16;;;;;;;17.65;12.70;;;;;;;24.83;38.48;99093.53;5071871;28;20569;-50
2022/05/05 09:38:55;;;;;;;20.15;13.88;;;;;;;25.07;38.11;99087.34;5071842;28;20047;-50
2022/05/05 09:41:26;;;;;;;18.60;8.65;;;;;;;24.95;38.12;99103.88;5070512;28;20114;-50
2022/05/05 09:43:56;;;;;;;14.32;9.48;;;;;;;24.82;37.64;99093.81;5070557;28;20413;-50
2022/05/05 09:46:28;;;;;;;16.92;8.65;;;;;;;24.59;38.52;99106.09;5069839;28;20111;-50
2022/05/05 09:49:07;;;;;;;11.85;7.22;;;;;;;24.44;38.38;99104.31;5070529;28;20510;-49
2022/05/05 09:57:43;;;;;;;19.63;11.55;;;;;;;23.68;39.34;99109.09;5071662;28;20417;-50
2022/05/05 10:05:53;;;;;;;11.80;7.15;;;;;;;22.33;40.38;99104.31;5071972;28;20174;-49
2022/05/05 10:08:41;;;;;;;13.02;8.13;;;;;;;22.03;40.93;99113.09;5070207;28;20021;-49
2022/05/05 10:11:08;;;;;;;14.40;7.47;;;;;;;21.85;40.98;99107.19;5071284;28;20028;-50
2022/05/05 10:13:37;;;;;;;12.88;7.65;;;;;;;21.79;40.90;99110.88;5070192;28;20123;-50
2022/05/05 10:16:04;;;;;;;13.57;8.20;;;;;;;21.86;41.85;99106.13;5071681;28;20028;-49
2022/05/05 10:18:39;;;;;;;11.23;8.05;;;;;;;22.14;41.12;99101.34;5071336;28;20025;-49
2022/05/05 10:21:26;;;;;;;14.52;8.25;;;;;;;22.53;41.05;99112.34;5071463;28;20037;-50
2022/05/05 10:23:52;;;;;;;11.23;8.05;;;;;;;22.88;40.71;99104.56;5071459;28;20367;-49
2022/05/05 10:26:25;;;;;;;11.35;7.78;;;;;;;23.02;39.43;99108.31;5071334;28;20074;-50
2022/05/05 10:28:52;;;;;;;12.10;8.30;;;;;;;23.00;40.06;99106.91;5071341;28;20016;-50
2022/05/05 10:31:30;;;;;;;13.60;8.18;;;;;;;23.10;39.45;99109.59;5071039;28;20136;-49
2022/05/05 10:34:09;;;;;;;13.73;8.20;;;;;;;23.19;39.48;99097.25;5071254;28;20040;-50
2022/05/05 10:36:36;;;;;;;17.98;9.68;;;;;;;23.49;39.41;99095.53;5071232;28;20029;-50
2022/05/05 10:39:19;;;;;;;10.48;7.30;;;;;;;23.68;38.55;99091.16;5071272;28;20073;-50
2022/05/05 10:41:46;;;;;;;15.75;8.15;;;;;;;23.63;38.25;99096.53;5071153;28;20047;-50
2022/05/05 10:44:21;;;;;;;12.63;7.75;;;;;;;23.80;37.40;99079.31;5071200;28;20013;-50
2022/05/05 10:46:53;;;;;;;33.97;9.32;;;;;;;23.73;36.13;99080.41;5071440;28;20056;-50
2022/05/05 10:49:34;;;;;;;14.18;7.57;;;;;;;23.49;36.40;99082.94;5071161;28;20024;-49
2022/05/05 10:52:11;;;;;;;11.23;7.18;;;;;;;23.33;36.57;99076.84;5071075;28;20051;-49
2022/05/05 10:54:45;;;;;;;18.27;7.13;;;;;;;23.53;36.03;99072.47;5071152;28;20091;-49
2022/05/05 10:57:23;;;;;;;9.60;7.07;;;;;;;23.96;35.49;99067.41;5072043;28;20493;-49
2022/05/05 11:00:12;;;;;;;10.20;6.80;;;;;;;24.41;34.22;99059.25;5074673;28;20070;-49
2022/05/05 11:02:41;;;;;;;10.88;6.40;;;;;;;24.68;34.04;99056.09;5074586;28;20043;-50
2022/05/05 11:05:29;;;;;;;11.75;7.53;;;;;;;25.01;33.99;99054.41;5074594;28;20059;-49
2022/05/05 11:08:17;;;;;;;9.25;7.25;;;;;;;25.39;33.76;99048.31;5073342;28;20024;-49
2022/05/05 11:11:39;;;;;;;13.50;7.40;;;;;;;25.78;33.39;99049.94;5073094;28;20021;-50
2022/05/05 11:13:48;;;;;;;15.27;7.60;;;;;;;26.20;32.84;99053.59;5074307;28;20056;-49
2022/05/05 11:22:10;;;;;;;17.23;8.75;;;;;;;24.86;34.52;99054.56;5074338;28;20636;-49
2022/05/05 11:24:37;;;;;;;16.00;9.13;;;;;;;25.12;33.90;99044.34;5074341;28;20029;-49
2022/05/05 11:27:03;;;;;;;18.25;7.65;;;;;;;25.29;33.62;99042.00;5074171;28;20035;-49
2022/05/05 11:29:30;;;;;;;17.30;8.02;;;;;;;24.96;33.61;99042.91;5074160;28;20028;-50
2022/05/05 11:31:58;;;;;;;11.63;6.78;;;;;;;24.43;33.68;99041.03;5073925;28;20072;-49
2022/05/05 11:34:31;;;;;;;21.88;7.13;;;;;;;24.20;34.32;99042.56;5074106;28;20020;-49
2022/05/05 11:36:59;;;;;;;14.18;6.90;;;;;;;24.72;34.06;99041.03;5074018;28;20039;-49
2022/05/05 11:39:25;;;;;;;23.60;6.65;;;;;;;25.08;32.99;99046.00;5072709;28;20025;-48
2022/05/05 11:42:08;;;;;;;14.88;5.95;;;;;;;25.12;32.35;99030.91;5073996;28;20028;-49
2022/05/05 11:44:41;;;;;;;18.15;6.53;;;;;;;25.05;32.31;99038.50;5072597;28;20023;-49
2022/05/05 11:47:19;;;;;;;13.88;6.70;;;;;;;25.00;32.01;99025.94;5073871;28;20032;-50
2022/05/05 11:49:52;;;;;;;15.07;6.28;;;;;;;24.92;32.52;99037.31;5073849;28;20589;-49
2022/05/05 11:52:25;;;;;;;18.23;6.20;;;;;;;25.11;31.67;99024.75;5074365;28;20024;-50
2022/05/05 11:55:04;;;;;;;9.93;5.68;;;;;;;25.53;31.72;99033.06;5073785;28;20025;-48
2022/05/05 11:57:38;;;;;;;17.60;5.72;;;;;;;25.68;31.05;99024.78;5073611;28;20526;-48
2022/05/05 12:02:51;;;;;;;10.55;6.00;;;;;;;25.01;31.16;99024.03;5073835;28;20035;-49
2022/05/05 12:05:18;;;;;;;11.70;5.10;;;;;;;25.51;31.94;99030.69;5073456;28;20020;-50
2022/05/05 12:07:46;;;;;;;14.05;5.07;;;;;;;26.53;29.97;99024.75;5073492;28;20562;-49
2022/05/05 12:10:14;;;;;;;10.57;5.18;;;;;;;27.33;28.89;99030.78;5072845;28;20103;-48
2022/05/05 12:12:50;;;;;;;10.95;5.93;;;;;;;27.23;28.01;99026.41;5073349;28;20020;-49